createdAt,value
2023-04-12T00:00:11.349Z,100217.56
2023-04-12T00:02:39.546Z,100214.91
2023-04-12T00:05:06.634Z,100209.19
2023-04-12T00:07:33.016Z,100211.97
2023-04-12T00:09:59.567Z,100206.53
2023-04-12T00:12:25.932Z,100212.72
2023-04-12T00:14:52.357Z,100205.03
2023-04-12T00:17:19.227Z,100187.06
2023-04-12T00:19:47.846Z,100183.06
2023-04-12T00:22:14.863Z,100186.09
2023-04-12T00:24:41.754Z,100185.38
2023-04-12T00:27:08.638Z,100179.28
2023-04-12T00:29:36.021Z,100180.78
2023-04-12T00:32:03.748Z,100177.50
2023-04-12T00:34:30.368Z,100170.44
2023-04-12T00:36:56.711Z,100173.34
2023-04-12T00:39:23.284Z,100161.44
2023-04-12T00:41:49.608Z,100155.13
2023-04-12T00:44:18.113Z,100153.91
2023-04-12T00:46:47.386Z,100147.09
2023-04-12T00:49:15.367Z,100144.75
2023-04-12T00:51:43.150Z,100139.03
2023-04-12T00:54:10.993Z,100145.63
2023-04-12T00:56:38.261Z,100136.38
2023-04-12T00:59:05.199Z,100127.72
2023-04-12T01:01:31.985Z,100125.06
2023-04-12T01:04:01.380Z,100119.31
2023-04-12T01:06:41.175Z,100112.25
2023-04-12T01:09:22.371Z,100111.66
2023-04-12T01:12:08.925Z,100091.72
2023-04-12T01:14:56.796Z,100087.31
2023-04-12T01:17:29.091Z,100091.81
2023-04-12T01:20:13.053Z,100083.75
2023-04-12T01:23:02.303Z,100073.41
2023-04-12T01:25:39.128Z,100074.41
2023-04-12T01:28:08.996Z,100062.63
2023-04-12T01:30:36.866Z,100052.41
2023-04-12T01:33:06.594Z,100046.84
2023-04-12T01:35:35.126Z,100062.13
2023-04-12T01:38:03.109Z,100045.28
2023-04-12T01:40:31.243Z,100037.25
2023-04-12T01:43:07.500Z,100032.38
2023-04-12T01:45:34.355Z,100021.94
2023-04-12T01:48:06.090Z,100016.31
2023-04-12T01:50:41.351Z,100018.88
2023-04-12T01:53:20.345Z,100019.22
2023-04-12T01:55:49.415Z,100002.94
2023-04-12T01:58:20.789Z,100000.78
2023-04-12T02:00:49.004Z,99996.66
2023-04-12T02:03:16.572Z,99989.59
2023-04-12T02:05:43.081Z,99988.50
2023-04-12T02:08:09.794Z,99965.56
2023-04-12T02:10:39.600Z,99972.59
2023-04-12T02:13:06.500Z,99963.63
2023-04-12T02:15:33.305Z,99959.00
2023-04-12T02:18:00.355Z,99949.75
2023-04-12T02:20:27.242Z,99954.97
2023-04-12T02:22:54.252Z,99940.03
2023-04-12T02:25:20.900Z,99933.59
2023-04-12T02:27:48.518Z,99921.84
2023-04-12T02:30:15.258Z,99916.50
2023-04-12T02:32:45.557Z,99903.38
2023-04-12T02:35:19.394Z,99900.50
2023-04-12T02:37:49.775Z,99884.34
2023-04-12T02:40:16.310Z,99895.59
2023-04-12T02:42:43.359Z,99892.41
2023-04-12T02:45:11.699Z,99879.25
2023-04-12T02:47:40.791Z,99879.06
2023-04-12T02:50:09.239Z,99880.16
2023-04-12T02:52:46.792Z,99866.50
2023-04-12T02:55:13.127Z,99851.66
2023-04-12T02:57:39.533Z,99842.31
2023-04-12T03:00:15.186Z,99834.03
2023-04-12T03:02:53.270Z,99831.88
2023-04-12T03:05:24.584Z,99821.81
2023-04-12T03:07:51.737Z,99816.25
2023-04-12T03:10:22.546Z,99798.50
2023-04-12T03:12:56.018Z,99788.56
2023-04-12T03:15:29.795Z,99778.03
2023-04-12T03:17:56.482Z,99773.53
2023-04-12T03:20:28.299Z,99767.22
2023-04-12T03:23:04.067Z,99762.00
2023-04-12T03:25:32.578Z,99764.69
2023-04-12T03:28:12.511Z,99753.16
2023-04-12T03:30:48.245Z,99744.19
2023-04-12T03:33:17.156Z,99741.63
2023-04-12T03:35:45.313Z,99734.63
2023-04-12T03:38:13.012Z,99732.19
2023-04-12T03:40:41.521Z,99731.31
2023-04-12T03:43:08.505Z,99727.72
2023-04-12T03:45:34.947Z,99712.31
2023-04-12T03:48:02.624Z,99707.47
2023-04-12T03:50:44.476Z,99713.03
2023-04-12T03:53:17.355Z,99701.28
2023-04-12T03:55:45.959Z,99699.09
2023-04-12T03:58:13.438Z,99687.47
2023-04-12T04:00:44.441Z,99686.25
2023-04-12T04:03:11.816Z,99673.88
2023-04-12T04:05:45.389Z,99672.94
2023-04-12T04:08:13.470Z,99653.16
2023-04-12T04:10:49.670Z,99655.00
2023-04-12T04:13:16.257Z,99644.06
2023-04-12T04:15:42.964Z,99646.13
2023-04-12T04:18:10.454Z,99639.56
2023-04-12T04:20:37.621Z,99641.41
2023-04-12T04:23:04.934Z,99627.09
2023-04-12T04:25:35.073Z,99609.28
2023-04-12T04:28:09.611Z,99619.09
2023-04-12T04:30:38.759Z,99618.84
2023-04-12T04:33:07.951Z,99610.97
2023-04-12T04:35:34.555Z,99617.25
2023-04-12T04:38:20.564Z,99607.94
2023-04-12T04:40:53.145Z,99606.00
2023-04-12T04:43:22.183Z,99597.38
2023-04-12T04:45:54.543Z,99601.88
2023-04-12T04:48:21.312Z,99596.53
2023-04-12T04:50:47.690Z,99592.88
2023-04-12T04:53:18.484Z,99587.44
2023-04-12T04:55:44.994Z,99579.06
2023-04-12T04:58:11.789Z,99577.03
2023-04-12T05:00:38.697Z,99573.88
2023-04-12T05:03:05.339Z,99576.28
2023-04-12T05:05:32.475Z,99570.22
2023-04-12T05:08:05.875Z,99564.53
2023-04-12T05:10:34.319Z,99557.88
2023-04-12T05:13:02.240Z,99552.56
2023-04-12T05:15:30.660Z,99562.75
2023-04-12T05:17:57.088Z,99555.34
2023-04-12T05:20:23.710Z,99556.53
2023-04-12T05:22:50.128Z,99548.91
2023-04-12T05:25:16.737Z,99552.09
2023-04-12T05:27:52.217Z,99554.75
2023-04-12T05:30:19.768Z,99541.91
2023-04-12T05:32:46.270Z,99540.31
2023-04-12T05:35:14.348Z,99538.88
2023-04-12T05:37:42.850Z,99530.03
2023-04-12T05:40:09.778Z,99526.53
2023-04-12T05:42:37.420Z,99528.22
2023-04-12T05:45:04.828Z,99514.78
2023-04-12T05:47:33.775Z,99516.50
2023-04-12T05:50:00.815Z,99511.53
2023-04-12T05:52:27.200Z,99504.97
2023-04-12T05:54:53.762Z,99500.75
2023-04-12T05:57:22.148Z,99490.94
2023-04-12T05:59:48.840Z,99486.34
2023-04-12T06:02:15.593Z,99488.88
2023-04-12T06:04:49.310Z,99481.47
2023-04-12T06:07:19.141Z,99473.59
2023-04-12T06:09:46.015Z,99472.63
2023-04-12T06:12:12.348Z,99470.94
2023-04-12T06:14:39.640Z,99457.50
2023-04-12T06:17:06.679Z,99457.75
2023-04-12T06:19:33.097Z,99450.44
2023-04-12T06:21:59.468Z,99456.03
2023-04-12T06:24:25.891Z,99445.72
2023-04-12T06:26:52.219Z,99445.00
2023-04-12T06:29:18.917Z,99440.66
2023-04-12T06:31:46.619Z,99429.97
2023-04-12T06:34:13.244Z,99430.81
2023-04-12T06:36:41.468Z,99435.16
2023-04-12T06:39:09.528Z,99433.59
2023-04-12T06:41:35.878Z,99421.38
2023-04-12T06:44:02.188Z,99417.63
2023-04-12T06:46:28.979Z,99414.84
2023-04-12T06:48:55.519Z,99405.34
2023-04-12T06:51:21.963Z,99401.97
2023-04-12T06:53:48.302Z,99409.59
2023-04-12T06:56:16.570Z,99396.59
2023-04-12T06:58:44.710Z,99389.06
2023-04-12T07:01:11.287Z,99387.75
2023-04-12T07:03:38.849Z,99379.50
2023-04-12T07:06:17.786Z,99373.56
2023-04-12T07:08:50.640Z,99375.34
2023-04-12T07:11:21.441Z,99372.91
2023-04-12T07:13:49.135Z,99361.81
2023-04-12T07:16:15.581Z,99351.47
2023-04-12T07:18:41.994Z,99357.53
2023-04-12T07:21:08.351Z,99369.31
2023-04-12T07:23:34.724Z,99354.16
2023-04-12T07:26:02.256Z,99360.91
2023-04-12T07:28:28.800Z,99356.03
2023-04-12T07:30:55.387Z,99352.28
2023-04-12T07:33:21.940Z,99337.38
2023-04-12T07:35:48.630Z,99329.94
2023-04-12T07:38:16.697Z,99334.16
2023-04-12T07:40:43.534Z,99330.44
2023-04-12T07:43:09.847Z,99320.94
2023-04-12T07:45:37.448Z,99325.53
2023-04-12T07:48:04.136Z,99321.97
2023-04-12T07:50:30.701Z,99314.81
2023-04-12T07:53:19.737Z,99310.47
2023-04-12T07:55:47.139Z,99313.97
2023-04-12T07:58:13.641Z,99305.84
2023-04-12T08:00:40.042Z,99303.75
2023-04-12T08:03:06.596Z,99311.50
2023-04-12T08:05:33.039Z,99310.38
2023-04-12T08:07:59.405Z,99309.78
2023-04-12T08:10:25.795Z,99317.53
2023-04-12T08:12:52.171Z,99316.63
2023-04-12T08:15:18.600Z,99316.50
2023-04-12T08:17:46.581Z,99332.13
2023-04-12T08:20:13.069Z,99328.69
2023-04-12T08:22:40.079Z,99327.13
2023-04-12T08:25:07.466Z,99322.47
2023-04-12T08:27:34.186Z,99327.97
2023-04-12T08:30:00.550Z,99312.06
2023-04-12T08:32:26.934Z,99303.41
2023-04-12T08:34:53.270Z,99312.44
2023-04-12T08:37:19.574Z,99306.31
2023-04-12T08:39:46.202Z,99289.59
2023-04-12T08:42:14.862Z,99289.91
2023-04-12T08:44:41.590Z,99288.94
2023-04-12T08:47:10.549Z,99290.78
2023-04-12T08:49:37.890Z,99288.94
2023-04-12T08:52:06.514Z,99281.78
2023-04-12T08:54:34.166Z,99283.88
2023-04-12T08:57:03.400Z,99282.75
2023-04-12T08:59:31.399Z,99287.25
2023-04-12T09:01:59.149Z,99284.75
2023-04-12T09:04:26.677Z,99276.47
2023-04-12T09:06:53.120Z,99280.25
2023-04-12T09:09:19.457Z,99270.69
2023-04-12T09:11:45.894Z,99276.34
2023-04-12T09:14:25.700Z,99266.78
2023-04-12T09:16:52.108Z,99266.78
2023-04-12T09:19:31.882Z,99270.47
2023-04-12T09:21:58.555Z,99287.75
2023-04-12T09:24:24.928Z,99282.53
2023-04-12T09:27:07.088Z,99273.13
2023-04-12T09:29:34.137Z,99273.25
2023-04-12T09:32:02.008Z,99272.41
2023-04-12T09:34:29.956Z,99277.06
2023-04-12T09:36:56.787Z,99268.63
2023-04-12T09:39:35.464Z,99272.03
2023-04-12T09:42:25.634Z,99274.00
2023-04-12T09:44:58.602Z,99266.97
2023-04-12T09:47:41.797Z,99274.56
2023-04-12T09:50:09.458Z,99267.09
2023-04-12T09:52:40.270Z,99262.88
2023-04-12T09:55:11.577Z,99260.59
2023-04-12T09:57:43.930Z,99269.50
2023-04-12T10:00:14.271Z,99270.88
2023-04-12T10:02:43.865Z,99261.03
2023-04-12T10:05:13.309Z,99253.47
2023-04-12T10:07:41.984Z,99255.16
2023-04-12T10:10:12.166Z,99259.78
2023-04-12T10:12:39.973Z,99262.03
2023-04-12T10:15:12.729Z,99255.53
2023-04-12T10:17:47.164Z,99250.06
2023-04-12T10:20:16.787Z,99253.56
2023-04-12T10:22:47.312Z,99253.56
2023-04-12T10:25:15.425Z,99237.97
2023-04-12T10:27:43.538Z,99246.13
2023-04-12T10:30:22.732Z,99239.38
2023-04-12T10:33:09.444Z,99249.09
2023-04-12T10:35:48.093Z,99236.41
2023-04-12T10:38:15.603Z,99241.22
2023-04-12T10:41:06.932Z,99250.63
2023-04-12T10:43:33.342Z,99246.25
2023-04-12T10:46:04.266Z,99250.31
2023-04-12T10:48:37.552Z,99243.38
2023-04-12T10:51:16.079Z,99234.06
2023-04-12T10:53:42.478Z,99239.06
2023-04-12T10:56:33.892Z,99242.47
2023-04-12T10:59:01.820Z,99241.91
2023-04-12T11:01:33.692Z,99234.50
2023-04-12T11:04:20.337Z,99232.56
2023-04-12T11:07:11.539Z,99250.66
2023-04-12T11:09:41.932Z,99270.41
2023-04-12T11:12:10.941Z,99280.03
2023-04-12T11:14:50.958Z,99272.97
2023-04-12T11:17:23.121Z,99291.94
2023-04-12T11:19:55.964Z,99276.19
2023-04-12T11:22:24.737Z,99274.91
2023-04-12T11:24:53.396Z,99270.13
2023-04-12T11:27:21.475Z,99265.50
2023-04-12T11:29:54.319Z,99271.09
2023-04-12T11:32:22.085Z,99266.06
2023-04-12T11:34:48.642Z,99266.47
2023-04-12T11:37:15.582Z,99257.94
2023-04-12T11:39:43.701Z,99256.25
2023-04-12T11:42:19.280Z,99263.16
2023-04-12T11:47:21.291Z,99278.06
2023-04-12T11:49:51.310Z,99279.50
2023-04-12T11:52:19.314Z,99289.19
2023-04-12T11:54:50.763Z,99289.31
2023-04-12T11:57:18.902Z,99291.44
2023-04-12T11:59:47.138Z,99287.63
2023-04-12T12:02:22.902Z,99289.31
2023-04-12T12:04:50.998Z,99285.25
2023-04-12T12:07:19.227Z,99275.53
2023-04-12T12:09:48.717Z,99268.72
2023-04-12T12:12:16.013Z,99273.50
2023-04-12T12:14:45.410Z,99280.94
2023-04-12T12:17:13.980Z,99277.22
2023-04-12T12:19:42.500Z,99270.81
2023-04-12T12:22:19.945Z,99269.03
2023-04-12T12:24:57.808Z,99262.78
2023-04-12T12:27:30.258Z,99265.53
2023-04-12T12:30:01.364Z,99263.53
2023-04-12T12:32:33.291Z,99270.84
2023-04-12T12:34:59.724Z,99264.50
2023-04-12T12:37:28.323Z,99241.69
2023-04-12T12:40:14.022Z,99241.94
2023-04-12T12:42:45.682Z,99245.34
2023-04-12T12:45:17.085Z,99253.91
2023-04-12T12:47:53.801Z,99255.03
2023-04-12T12:50:25.050Z,99253.09
2023-04-12T12:52:52.904Z,99256.00
2023-04-12T12:55:21.136Z,99263.44
2023-04-12T12:58:02.049Z,99249.78
2023-04-12T13:00:32.921Z,99235.38
2023-04-12T13:02:59.620Z,99246.44
2023-04-12T13:05:26.381Z,99248.81
2023-04-12T13:07:52.793Z,99241.53
2023-04-12T13:10:19.231Z,99238.53
2023-04-12T13:12:45.921Z,99235.38
2023-04-12T13:15:22.469Z,99238.19
2023-04-12T13:17:53.859Z,99237.66
2023-04-12T13:20:21.070Z,99219.56
2023-04-12T13:22:47.505Z,99227.94
2023-04-12T13:25:13.961Z,99223.34
2023-04-12T13:27:40.417Z,99219.28
2023-04-12T13:30:07.435Z,99220.28
2023-04-12T13:32:33.934Z,99211.91
2023-04-12T13:35:00.547Z,99209.06
2023-04-12T13:37:26.995Z,99203.13
2023-04-12T13:39:53.372Z,99209.28
2023-04-12T13:42:20.032Z,99204.59
2023-04-12T13:44:48.449Z,99205.81
2023-04-12T13:47:15.647Z,99206.66
2023-04-12T13:49:42.389Z,99211.06
2023-04-12T13:52:12.408Z,99220.72
2023-04-12T13:54:39.782Z,99217.59
2023-04-12T13:57:06.388Z,99220.69
2023-04-12T13:59:32.942Z,99224.81
2023-04-12T14:02:00.390Z,99246.75
2023-04-12T14:04:31.220Z,99249.59
2023-04-12T14:06:59.328Z,99276.94
2023-04-12T14:09:27.668Z,99268.06
2023-04-12T14:11:56.001Z,99278.13
2023-04-12T14:14:22.712Z,99289.63
2023-04-12T14:16:53.688Z,99288.31
2023-04-12T14:19:20.645Z,99303.28
2023-04-12T14:21:48.072Z,99305.78
2023-04-12T14:24:16.021Z,99313.56
2023-04-12T14:26:43.318Z,99321.19
2023-04-12T14:29:09.982Z,99314.81
2023-04-12T14:31:37.218Z,99325.03
2023-04-12T14:34:04.517Z,99326.16
2023-04-12T14:36:31.739Z,99331.91
2023-04-12T14:38:58.296Z,99331.25
2023-04-12T14:41:25.544Z,99342.25
2023-04-12T14:43:51.923Z,99327.34
2023-04-12T14:46:18.400Z,99337.78
2023-04-12T14:48:44.841Z,99329.78
2023-04-12T14:51:11.282Z,99338.88
2023-04-12T14:53:37.606Z,99343.88
2023-04-12T14:56:04.025Z,99336.72
2023-04-12T14:58:30.617Z,99345.25
2023-04-12T15:01:00.786Z,99333.59
2023-04-12T15:03:29.774Z,99336.72
2023-04-12T15:05:57.992Z,99335.34
2023-04-12T15:08:24.420Z,99329.69
2023-04-12T15:10:51.192Z,99325.69
2023-04-12T15:13:17.711Z,99347.50
2023-04-12T15:15:47.050Z,99345.06
2023-04-12T15:18:13.727Z,99351.53
2023-04-12T15:20:40.059Z,99341.53
2023-04-12T15:23:06.523Z,99354.81
2023-04-12T15:25:33.366Z,99362.66
2023-04-12T15:27:59.784Z,99359.38
2023-04-12T15:30:26.172Z,99375.06
2023-04-12T15:32:53.233Z,99385.50
2023-04-12T15:35:26.636Z,99385.06
2023-04-12T15:37:54.875Z,99395.84
2023-04-12T15:40:22.502Z,99394.34
2023-04-12T15:42:48.872Z,99391.81
2023-04-12T15:45:15.190Z,99384.53
2023-04-12T15:47:41.611Z,99368.84
2023-04-12T15:50:08.710Z,99377.19
2023-04-12T15:52:36.016Z,99376.56
2023-04-12T15:55:05.218Z,99377.97
2023-04-12T15:57:32.239Z,99377.91
2023-04-12T15:59:59.581Z,99380.69
2023-04-12T16:02:26.327Z,99384.09
2023-04-12T16:04:55.815Z,99385.03
2023-04-12T16:07:22.546Z,99394.78
2023-04-12T16:09:48.906Z,99381.47
2023-04-12T16:12:15.287Z,99382.88
2023-04-12T16:14:42.115Z,99385.56
2023-04-12T16:17:08.460Z,99403.84
2023-04-12T16:19:34.798Z,99405.25
2023-04-12T16:22:01.701Z,99404.50
2023-04-12T16:24:28.455Z,99413.09
2023-04-12T16:26:54.976Z,99419.38
2023-04-12T16:29:21.314Z,99420.16
2023-04-12T16:31:47.661Z,99429.28
2023-04-12T16:34:15.651Z,99428.97
2023-04-12T16:36:42.890Z,99427.66
2023-04-12T16:39:11.214Z,99431.69
2023-04-12T16:41:37.759Z,99434.75
2023-04-12T16:44:04.077Z,99443.06
2023-04-12T16:46:30.585Z,99446.66
2023-04-12T16:48:58.950Z,99463.09
2023-04-12T16:51:26.104Z,99455.44
2023-04-12T16:53:52.473Z,99461.53
2023-04-12T16:56:19.849Z,99456.22
2023-04-12T16:58:48.706Z,99450.88
2023-04-12T17:01:16.842Z,99441.66
2023-04-12T17:03:44.051Z,99436.09
2023-04-12T17:06:10.657Z,99437.16
2023-04-12T17:08:37.093Z,99415.63
2023-04-12T17:11:03.598Z,99407.66
2023-04-12T17:13:30.676Z,99402.78
2023-04-12T17:15:57.314Z,99408.69
2023-04-12T17:18:23.702Z,99414.03
2023-04-12T17:20:50.024Z,99414.00
2023-04-12T17:23:16.365Z,99411.41
2023-04-12T17:25:42.829Z,99400.28
2023-04-12T17:28:09.448Z,99398.84
2023-04-12T17:30:36.015Z,99394.84
2023-04-12T17:33:03.043Z,99396.56
2023-04-12T17:35:29.638Z,99399.06
2023-04-12T17:37:56.355Z,99401.53
2023-04-12T17:40:22.837Z,99407.50
2023-04-12T17:42:49.279Z,99403.84
2023-04-12T17:45:16.021Z,99398.06
2023-04-12T17:47:42.832Z,99391.94
2023-04-12T17:50:11.069Z,99392.47
2023-04-12T17:52:37.874Z,99385.44
2023-04-12T17:55:05.628Z,99393.38
2023-04-12T17:57:32.209Z,99387.06
2023-04-12T17:59:58.657Z,99395.91
2023-04-12T18:02:25.415Z,99399.56
2023-04-12T18:04:52.110Z,99392.25
2023-04-12T18:07:18.513Z,99398.94
2023-04-12T18:09:44.943Z,99407.22
2023-04-12T18:12:11.853Z,99401.03
2023-04-12T18:14:40.326Z,99401.78
2023-04-12T18:17:07.411Z,99399.50
2023-04-12T18:19:34.013Z,99395.75
2023-04-12T18:22:00.388Z,99400.97
2023-04-12T18:24:26.909Z,99398.28
2023-04-12T18:26:53.352Z,99396.00
2023-04-12T18:29:19.817Z,99405.81
2023-04-12T18:31:46.405Z,99412.63
2023-04-12T18:34:13.903Z,99413.09
2023-04-12T18:36:42.172Z,99410.94
2023-04-12T18:39:08.800Z,99414.53
2023-04-12T18:41:35.734Z,99419.75
2023-04-12T18:44:02.718Z,99413.22
2023-04-12T18:46:29.507Z,99417.56
2023-04-12T18:48:56.262Z,99424.06
2023-04-12T18:51:23.156Z,99435.06
2023-04-12T18:53:52.970Z,99435.41
2023-04-12T18:56:24.188Z,99439.66
2023-04-12T18:58:55.901Z,99440.63
2023-04-12T19:01:24.627Z,99441.81
2023-04-12T19:03:51.417Z,99431.19
2023-04-12T19:06:18.158Z,99428.41
2023-04-12T19:08:44.693Z,99435.66
2023-04-12T19:11:11.136Z,99432.75
2023-04-12T19:13:38.304Z,99445.81
2023-04-12T19:16:08.768Z,99430.47
2023-04-12T19:18:35.209Z,99431.31
2023-04-12T19:21:02.648Z,99422.59
2023-04-12T19:23:29.525Z,99424.69
2023-04-12T19:25:58.361Z,99428.78
2023-04-12T19:28:24.954Z,99431.44
2023-04-12T19:30:51.739Z,99423.59
2023-04-12T19:33:18.756Z,99425.41
2023-04-12T19:35:45.107Z,99426.47
2023-04-12T19:38:11.925Z,99428.56
2023-04-12T19:40:38.297Z,99429.03
2023-04-12T19:43:04.748Z,99431.69
2023-04-12T19:45:31.488Z,99431.31
2023-04-12T19:47:57.921Z,99422.50
2023-04-12T19:50:24.852Z,99422.34
2023-04-12T19:52:51.516Z,99417.88
2023-04-12T19:55:21.237Z,99419.19
2023-04-12T19:57:47.799Z,99422.59
2023-04-12T20:00:20.549Z,99417.50
2023-04-12T20:02:51.008Z,99412.50
2023-04-12T20:05:17.803Z,99405.50
2023-04-12T20:07:45.114Z,99409.84
2023-04-12T20:10:12.929Z,99412.59
2023-04-12T20:12:39.536Z,99412.22
2023-04-12T20:15:11.622Z,99415.13
2023-04-12T20:17:42.801Z,99417.78
2023-04-12T20:20:17.139Z,99417.88
2023-04-12T20:22:51.632Z,99422.13
2023-04-12T20:25:20.012Z,99415.47
2023-04-12T20:27:51.802Z,99419.44
2023-04-12T20:30:20.298Z,99426.34
2023-04-12T20:32:49.130Z,99425.06
2023-04-12T20:35:15.604Z,99420.47
2023-04-12T20:37:42.154Z,99422.56
2023-04-12T20:40:09.354Z,99430.69
2023-04-12T20:42:35.756Z,99432.16
2023-04-12T20:45:02.106Z,99447.78
2023-04-12T20:47:28.505Z,99445.84
2023-04-12T20:49:56.203Z,99443.47
2023-04-12T20:52:22.718Z,99418.53
2023-04-12T20:54:49.126Z,99408.50
2023-04-12T20:57:19.585Z,99401.97
2023-04-12T20:59:46.503Z,99409.34
2023-04-12T21:02:13.083Z,99428.09
2023-04-12T21:04:41.056Z,99434.97
2023-04-12T21:07:07.537Z,99429.31
2023-04-12T21:09:33.952Z,99418.19
2023-04-12T21:12:02.676Z,99398.94
2023-04-12T21:14:29.304Z,99399.78
2023-04-12T21:16:55.735Z,99388.91
2023-04-12T21:19:22.783Z,99394.59
2023-04-12T21:21:50.976Z,99386.72
2023-04-12T21:24:18.340Z,99390.22
2023-04-12T21:26:44.914Z,99377.16
2023-04-12T21:29:11.562Z,99374.13
2023-04-12T21:31:41.425Z,99374.47
2023-04-12T21:34:10.117Z,99379.19
2023-04-12T21:36:36.498Z,99376.06
2023-04-12T21:39:04.119Z,99370.00
2023-04-12T21:41:30.493Z,99375.91
2023-04-12T21:43:56.941Z,99377.59
2023-04-12T21:46:27.603Z,99385.56
2023-04-12T21:48:54.308Z,99382.19
2023-04-12T21:51:22.553Z,99383.25
2023-04-12T21:53:48.909Z,99378.03
2023-04-12T21:56:15.290Z,99384.41
2023-04-12T21:58:41.698Z,99379.56
2023-04-12T22:01:09.206Z,99381.09
2023-04-12T22:03:36.306Z,99366.84
2023-04-12T22:06:04.856Z,99367.00
2023-04-12T22:08:32.667Z,99365.41
2023-04-12T22:11:00.025Z,99355.25
2023-04-12T22:13:26.557Z,99351.91
2023-04-12T22:15:52.882Z,99353.91
2023-04-12T22:18:19.539Z,99356.56
2023-04-12T22:20:45.989Z,99355.84
2023-04-12T22:23:13.708Z,99344.78
2023-04-12T22:25:40.141Z,99348.41
2023-04-12T22:28:06.558Z,99345.59
2023-04-12T22:30:32.969Z,99347.66
2023-04-12T22:32:59.921Z,99343.69
2023-04-12T22:35:26.986Z,99337.53
2023-04-12T22:37:53.404Z,99330.97
2023-04-12T22:40:19.993Z,99333.75
2023-04-12T22:42:48.048Z,99332.91
2023-04-12T22:45:15.942Z,99329.66
2023-04-12T22:47:43.276Z,99328.69
2023-04-12T22:50:12.494Z,99321.41
2023-04-12T22:52:39.767Z,99307.28
2023-04-12T22:55:07.762Z,99295.13
2023-04-12T22:57:36.430Z,99303.94
2023-04-12T23:00:05.676Z,99298.97
2023-04-12T23:02:33.555Z,99297.25
2023-04-12T23:05:02.347Z,99282.78
2023-04-12T23:07:30.169Z,99281.31
2023-04-12T23:09:57.678Z,99288.44
2023-04-12T23:12:24.646Z,99275.78
2023-04-12T23:14:51.184Z,99274.22
2023-04-12T23:17:19.571Z,99272.53
2023-04-12T23:19:46.342Z,99268.56
2023-04-12T23:22:22.328Z,99258.28
2023-04-12T23:24:50.880Z,99255.94
2023-04-12T23:27:17.289Z,99249.53
2023-04-12T23:29:44.301Z,99250.03
2023-04-12T23:32:12.333Z,99245.09
2023-04-12T23:34:38.798Z,99236.63
2023-04-12T23:37:05.166Z,99230.13
2023-04-12T23:39:31.667Z,99235.81
2023-04-12T23:41:59.117Z,99232.06
2023-04-12T23:44:27.461Z,99220.09
2023-04-12T23:46:53.875Z,99229.16
2023-04-12T23:49:20.642Z,99230.72
2023-04-12T23:51:47.330Z,99244.50
2023-04-12T23:54:13.679Z,99229.97
2023-04-12T23:56:40.042Z,99239.06
2023-04-12T23:59:06.849Z,99223.56
